Time;durP1;ratioP1;P1;durP2;ratioP2;P2;SDS_P1;SDS_P2;PMS_P1;PMS_P2;Temp;Humidity;BMP_temperature;BMP_pressure;BME280_temperature;BME280_humidity;BME280_pressure;Samples;Min_cycle;Max_cycle;Signal;HPM_P1;HPM_P2
2020/12/04 00:01:15;;;;;;;0.30;0.30;;;3.50;99.90;;;;;;5071106;28;20208;-82
2020/12/04 00:03:40;;;;;;;0.30;0.30;;;3.40;99.90;;;;;;5071870;28;20186;-84
2020/12/04 00:06:06;;;;;;;0.33;0.33;;;3.40;99.90;;;;;;5071751;28;20195;-85
2020/12/04 00:08:31;;;;;;;0.67;0.40;;;3.40;99.90;;;;;;5071509;28;20657;-83
2020/12/04 00:10:57;;;;;;;0.43;0.40;;;3.30;99.90;;;;;;5077216;28;20189;-85
2020/12/04 00:13:22;;;;;;;0.40;0.40;;;3.20;99.90;;;;;;5071256;28;20205;-83
2020/12/04 00:15:48;;;;;;;0.10;0.10;;;3.10;99.90;;;;;;5071952;28;20255;-82
2020/12/04 00:18:13;;;;;;;1.80;0.73;;;3.10;99.90;;;;;;5070582;28;20555;-83
2020/12/04 00:20:39;;;;;;;0.20;0.20;;;3.10;99.90;;;;;;5072275;28;20186;-83
2020/12/04 00:23:04;;;;;;;0.87;0.50;;;3.10;99.90;;;;;;5060863;28;20210;-84
2020/12/04 00:25:30;;;;;;;1.47;0.50;;;3.00;99.90;;;;;;5070992;28;20197;-82
2020/12/04 00:27:55;;;;;;;0.20;0.20;;;2.90;99.90;;;;;;5070793;28;20180;-83
2020/12/04 00:30:21;;;;;;;0.30;0.30;;;3.00;99.90;;;;;;5070450;28;20567;-83
2020/12/04 00:32:47;;;;;;;1.50;0.63;;;2.90;99.90;;;;;;5071986;28;20263;-83
2020/12/04 00:35:12;;;;;;;1.03;0.50;;;2.80;99.90;;;;;;5072104;28;20205;-83
2020/12/04 00:37:38;;;;;;;0.60;0.53;;;2.80;99.90;;;;;;5072451;28;20364;-82
2020/12/04 00:40:04;;;;;;;0.50;0.50;;;2.70;99.90;;;;;;5071521;28;20267;-83
2020/12/04 00:42:30;;;;;;;0.70;0.70;;;2.60;99.90;;;;;;5075447;28;20219;-83
2020/12/04 00:44:55;;;;;;;1.67;0.77;;;2.40;99.90;;;;;;5071469;28;20190;-83
2020/12/04 00:47:21;;;;;;;0.50;0.43;;;2.50;99.90;;;;;;5072718;28;20196;-84
2020/12/04 00:49:46;;;;;;;0.90;0.40;;;2.50;99.90;;;;;;5074181;28;20182;-83
2020/12/04 00:52:12;;;;;;;0.30;0.30;;;2.50;99.90;;;;;;5075762;28;20280;-82
2020/12/04 00:54:38;;;;;;;0.50;0.50;;;2.50;99.90;;;;;;5070464;28;20205;-83
2020/12/04 00:57:06;;;;;;;0.40;0.40;;;2.40;99.90;;;;;;5070749;28;20192;-84
2020/12/04 00:59:32;;;;;;;0.90;0.80;;;2.30;99.90;;;;;;5074245;28;21009;-85
2020/12/04 01:02:06;;;;;;;0.57;0.50;;;2.30;99.90;;;;;;5074053;28;20295;-83
2020/12/04 01:04:32;;;;;;;0.47;0.43;;;2.30;99.90;;;;;;5074173;28;20197;-82
2020/12/04 01:06:58;;;;;;;1.47;0.83;;;2.20;99.90;;;;;;5075342;28;20193;-83
2020/12/04 01:09:23;;;;;;;0.23;0.23;;;2.20;99.90;;;;;;5078259;28;20199;-83
2020/12/04 01:11:51;;;;;;;0.77;0.60;;;2.20;99.90;;;;;;5073758;28;20225;-84
2020/12/04 01:14:16;;;;;;;0.50;0.43;;;2.20;99.90;;;;;;5075042;28;20181;-83
2020/12/04 01:16:45;;;;;;;2.20;1.20;;;2.20;99.90;;;;;;5074050;28;20187;-83
2020/12/04 01:19:10;;;;;;;2.37;0.60;;;2.20;99.90;;;;;;5074016;28;20678;-84
2020/12/04 01:21:36;;;;;;;0.17;0.17;;;2.20;99.90;;;;;;5073601;28;20205;-83
2020/12/04 01:24:01;;;;;;;0.17;0.17;;;2.30;99.90;;;;;;5074483;28;20212;-83
2020/12/04 01:26:27;;;;;;;0.40;0.40;;;2.30;99.90;;;;;;5073594;28;20181;-85
2020/12/04 01:28:52;;;;;;;1.90;0.63;;;2.20;99.90;;;;;;5062878;28;20193;-83
2020/12/04 01:31:18;;;;;;;0.40;0.40;;;2.30;99.90;;;;;;5070577;28;20201;-85
2020/12/04 01:33:43;;;;;;;0.20;0.20;;;2.30;99.90;;;;;;5074387;28;20192;-85
2020/12/04 01:36:09;;;;;;;0.17;0.17;;;2.30;99.90;;;;;;5074745;28;20676;-84
2020/12/04 01:38:34;;;;;;;0.50;0.50;;;2.30;99.90;;;;;;5073826;28;20195;-83
2020/12/04 01:41:01;;;;;;;1.33;0.60;;;2.50;99.90;;;;;;5069487;28;20190;-83
2020/12/04 01:43:27;;;;;;;0.13;0.10;;;2.40;99.90;;;;;;5073532;28;20303;-83
2020/12/04 01:45:54;;;;;;;0.30;0.30;;;2.50;99.90;;;;;;5073327;28;20200;-83
2020/12/04 01:48:20;;;;;;;1.87;0.47;;;2.60;99.90;;;;;;5073342;28;20187;-84
2020/12/04 01:50:45;;;;;;;0.20;0.20;;;2.60;99.90;;;;;;5074226;28;20265;-83
2020/12/04 01:53:11;;;;;;;0.77;0.50;;;2.60;99.90;;;;;;5066634;28;20589;-82
2020/12/04 01:55:36;;;;;;;0.10;0.10;;;2.60;99.90;;;;;;5074052;28;20209;-82
2020/12/04 01:58:03;;;;;;;0.40;0.40;;;2.70;99.90;;;;;;5071992;28;20184;-83
2020/12/04 02:00:29;;;;;;;0.10;0.10;;;2.80;99.90;;;;;;5069443;28;20264;-84
2020/12/04 02:02:54;;;;;;;3.83;0.77;;;2.90;99.90;;;;;;5072881;28;20232;-84
2020/12/04 02:05:20;;;;;;;0.30;0.30;;;2.80;99.90;;;;;;5072814;28;20216;-83
2020/12/04 02:07:49;;;;;;;0.30;0.30;;;2.80;99.90;;;;;;5074117;28;20173;-82
2020/12/04 02:10:38;;;;;;;0.50;0.50;;;2.70;99.90;;;;;;5086633;28;20189;-84
2020/12/04 02:13:05;;;;;;;3.07;0.73;;;2.80;99.90;;;;;;5068544;28;20879;-84
2020/12/04 02:15:32;;;;;;;1.53;0.57;;;2.90;99.90;;;;;;5072561;28;20200;-83
2020/12/04 02:18:02;;;;;;;2.00;0.73;;;2.80;99.90;;;;;;5074300;28;20177;-83
2020/12/04 02:20:32;;;;;;;0.97;0.83;;;2.70;99.90;;;;;;5071822;28;20181;-83
2020/12/04 02:22:57;;;;;;;0.17;0.17;;;2.80;99.90;;;;;;5070852;28;20731;-83
2020/12/04 02:25:23;;;;;;;0.63;0.63;;;2.90;99.90;;;;;;5072309;28;20260;-83
2020/12/04 02:27:49;;;;;;;0.40;0.40;;;2.90;99.90;;;;;;5073249;28;20275;-83
2020/12/04 02:30:31;;;;;;;0.77;0.77;;;2.80;99.90;;;;;;5071826;28;20185;-83
2020/12/04 02:32:58;;;;;;;0.73;0.40;;;2.80;99.90;;;;;;5056895;28;20629;-83
2020/12/04 02:35:23;;;;;;;2.80;0.33;;;2.70;99.90;;;;;;5067255;28;20201;-83
2020/12/04 02:37:49;;;;;;;1.27;0.50;;;2.70;99.90;;;;;;5066080;28;20200;-83
2020/12/04 02:40:14;;;;;;;1.07;0.93;;;2.60;99.90;;;;;;5071643;28;20185;-82
2020/12/04 02:42:41;;;;;;;0.50;0.50;;;2.60;99.90;;;;;;5072201;28;20212;-83
2020/12/04 02:45:07;;;;;;;0.30;0.30;;;2.70;99.90;;;;;;5071938;28;20177;-83
2020/12/04 02:47:33;;;;;;;0.50;0.50;;;2.70;99.90;;;;;;5071832;28;20657;-83
2020/12/04 02:50:03;;;;;;;0.30;0.30;;;2.70;99.90;;;;;;5071335;28;20287;-83
2020/12/04 02:52:29;;;;;;;0.60;0.60;;;2.60;99.90;;;;;;5071506;28;20205;-83
2020/12/04 02:54:54;;;;;;;0.67;0.50;;;2.70;99.90;;;;;;5063046;28;20204;-83
2020/12/04 02:57:20;;;;;;;0.63;0.63;;;2.80;99.90;;;;;;5071579;28;20187;-83
2020/12/04 02:59:46;;;;;;;1.03;1.00;;;2.70;99.90;;;;;;5067897;28;20204;-83
2020/12/04 03:02:12;;;;;;;0.37;0.37;;;2.70;99.90;;;;;;5072842;28;20696;-83
2020/12/04 03:04:37;;;;;;;0.93;0.90;;;2.70;99.90;;;;;;5071193;28;20196;-83
2020/12/04 03:07:04;;;;;;;0.30;0.30;;;2.70;99.90;;;;;;5071452;28;20246;-83
2020/12/04 03:09:29;;;;;;;3.10;0.70;;;2.80;99.90;;;;;;5072347;28;20220;-83
2020/12/04 03:11:56;;;;;;;0.50;0.30;;;2.80;99.90;;;;;;5069728;28;20256;-83
2020/12/04 03:14:22;;;;;;;0.50;0.50;;;2.80;99.90;;;;;;5067950;28;20217;-83
2020/12/04 03:16:48;;;;;;;1.50;0.80;;;2.80;99.90;;;;;;5068765;28;20211;-84
2020/12/04 03:19:14;;;;;;;0.47;0.33;;;2.90;99.90;;;;;;5071444;28;20215;-83
2020/12/04 03:21:40;;;;;;;0.10;0.10;;;3.10;99.90;;;;;;5071783;28;20224;-83
2020/12/04 03:24:05;;;;;;;1.57;0.60;;;3.20;99.90;;;;;;5072572;28;20181;-83
2020/12/04 03:26:31;;;;;;;1.13;0.47;;;3.10;99.90;;;;;;5071396;28;20234;-83
2020/12/04 03:28:56;;;;;;;0.20;0.20;;;3.00;99.90;;;;;;5071012;28;20693;-83
2020/12/04 03:31:22;;;;;;;0.70;0.37;;;2.90;99.90;;;;;;5070553;28;20219;-83
2020/12/04 03:33:47;;;;;;;0.47;0.47;;;3.00;99.90;;;;;;5071021;28;20598;-84
2020/12/04 03:36:13;;;;;;;0.33;0.30;;;3.10;99.90;;;;;;5056874;28;20291;-84
2020/12/04 03:38:38;;;;;;;0.20;0.20;;;3.00;99.90;;;;;;5071111;28;20238;-82
2020/12/04 03:41:04;;;;;;;0.40;0.40;;;3.10;99.90;;;;;;5070242;28;20181;-84
2020/12/04 03:43:29;;;;;;;0.40;0.40;;;3.20;99.90;;;;;;5060434;28;20185;-84
2020/12/04 03:45:55;;;;;;;1.93;0.30;;;3.20;99.90;;;;;;5056225;28;20196;-83
2020/12/04 03:48:25;;;;;;;0.50;0.50;;;3.30;99.90;;;;;;5071323;28;20275;-84
2020/12/04 03:50:50;;;;;;;0.43;0.43;;;3.40;99.90;;;;;;5070694;28;20202;-84
2020/12/04 03:53:16;;;;;;;0.17;0.17;;;3.30;99.90;;;;;;5072466;28;20240;-83
2020/12/04 03:55:41;;;;;;;0.30;0.30;;;3.10;99.90;;;;;;5071123;28;20295;-82
2020/12/04 03:58:07;;;;;;;0.77;0.77;;;3.10;99.90;;;;;;5071099;28;20189;-84
2020/12/04 04:00:32;;;;;;;0.53;0.53;;;3.30;99.90;;;;;;5070572;28;20177;-83
2020/12/04 04:02:58;;;;;;;0.20;0.20;;;3.50;99.90;;;;;;5072303;28;20209;-83
2020/12/04 04:05:23;;;;;;;0.63;0.30;;;3.60;99.90;;;;;;5072267;28;20190;-84
2020/12/04 04:07:51;;;;;;;0.70;0.70;;;3.70;99.90;;;;;;5070903;28;20530;-83
2020/12/04 04:10:17;;;;;;;0.30;0.30;;;3.70;99.90;;;;;;5071578;28;20215;-82
2020/12/04 04:12:43;;;;;;;0.53;0.53;;;3.80;99.90;;;;;;5070768;28;20256;-83
2020/12/04 04:15:08;;;;;;;0.13;0.13;;;3.90;99.90;;;;;;5071622;28;20251;-83
2020/12/04 04:17:34;;;;;;;1.03;0.83;;;4.00;99.90;;;;;;5075731;28;20256;-83
2020/12/04 04:19:59;;;;;;;0.50;0.50;;;4.10;99.90;;;;;;5074259;28;20661;-83
2020/12/04 04:22:25;;;;;;;0.33;0.33;;;4.20;99.90;;;;;;5073816;28;20657;-86
2020/12/04 04:24:50;;;;;;;0.13;0.13;;;4.10;99.90;;;;;;5074506;28;20561;-82
2020/12/04 04:27:16;;;;;;;2.20;0.63;;;4.00;99.90;;;;;;5076367;28;20181;-82
2020/12/04 04:29:42;;;;;;;0.53;0.50;;;3.90;99.90;;;;;;5073909;28;20189;-83
2020/12/04 04:32:07;;;;;;;1.37;0.90;;;3.90;99.90;;;;;;5074454;28;20772;-84
2020/12/04 04:34:33;;;;;;;0.20;0.20;;;4.10;99.90;;;;;;5074335;28;20359;-83
2020/12/04 04:36:58;;;;;;;0.30;0.30;;;3.90;99.90;;;;;;5076391;28;20216;-82
2020/12/04 04:39:24;;;;;;;0.20;0.20;;;3.90;99.90;;;;;;5074854;28;20691;-83
2020/12/04 04:42:01;;;;;;;2.53;0.57;;;3.90;99.90;;;;;;5073449;28;20205;-85
2020/12/04 04:44:26;;;;;;;0.10;0.10;;;3.90;99.90;;;;;;5074516;28;20591;-83
2020/12/04 04:47:05;;;;;;;0.10;0.10;;;3.90;99.90;;;;;;5074102;28;20181;-82
2020/12/04 04:49:36;;;;;;;0.20;0.20;;;3.90;99.90;;;;;;5061158;28;20234;-83
2020/12/04 04:52:05;;;;;;;0.10;0.10;;;4.00;99.90;;;;;;5073611;28;20205;-83
2020/12/04 04:54:35;;;;;;;0.10;0.10;;;4.00;99.90;;;;;;5081366;28;20260;-83
2020/12/04 04:57:01;;;;;;;0.67;0.30;;;3.90;99.90;;;;;;5075346;28;20208;-83
2020/12/04 04:59:27;;;;;;;1.70;0.40;;;3.90;99.90;;;;;;5073935;28;20182;-84
2020/12/04 05:01:53;;;;;;;0.57;0.57;;;3.90;99.90;;;;;;5069972;28;20232;-83
2020/12/04 05:04:19;;;;;;;0.70;0.70;;;3.90;99.90;;;;;;5074069;28;20253;-83
2020/12/04 05:06:44;;;;;;;0.43;0.30;;;4.00;99.90;;;;;;5075519;28;20204;-83
2020/12/04 05:09:30;;;;;;;0.27;0.27;;;4.00;99.90;;;;;;5075398;28;20257;-84
2020/12/04 05:11:59;;;;;;;0.40;0.27;;;4.00;99.90;;;;;;5073042;28;20229;-84
2020/12/04 05:14:25;;;;;;;0.27;0.27;;;4.10;99.90;;;;;;5074624;28;20268;-83
2020/12/04 05:16:57;;;;;;;0.43;0.43;;;4.20;99.90;;;;;;5073783;28;20263;-84
2020/12/04 05:19:29;;;;;;;0.10;0.10;;;4.10;99.90;;;;;;5073540;28;20250;-83
2020/12/04 05:21:56;;;;;;;0.50;0.50;;;4.00;99.90;;;;;;5069674;28;20255;-83
2020/12/04 05:24:26;;;;;;;0.60;0.40;;;4.10;99.90;;;;;;5073211;28;20182;-84
2020/12/04 05:27:39;;;;;;;0.40;0.40;;;4.00;99.90;;;;;;5074817;28;20185;-83
2020/12/04 05:30:05;;;;;;;0.60;0.47;;;4.00;99.90;;;;;;5061643;28;20185;-83
2020/12/04 05:32:30;;;;;;;0.60;0.47;;;4.10;99.90;;;;;;5073304;28;20228;-83
2020/12/04 05:35:09;;;;;;;0.23;0.23;;;4.20;99.90;;;;;;5073527;28;20290;-83
2020/12/04 05:37:35;;;;;;;3.73;0.50;;;4.20;99.90;;;;;;5073587;28;20191;-83
2020/12/04 05:40:01;;;;;;;0.50;0.43;;;4.10;99.90;;;;;;5072993;28;20708;-83
2020/12/04 05:42:34;;;;;;;0.53;0.40;;;4.10;99.90;;;;;;5074607;28;20204;-83
2020/12/04 05:45:01;;;;;;;0.00;0.00;;;4.10;99.90;;;;;;5069962;28;20197;-84
2020/12/04 05:47:43;;;;;;;0.77;0.67;;;4.10;99.90;;;;;;5073786;28;20191;-85
2020/12/04 05:50:11;;;;;;;0.37;0.37;;;4.10;99.90;;;;;;5064766;28;20186;-85
2020/12/04 05:52:37;;;;;;;1.03;1.03;;;4.10;99.90;;;;;;5072196;28;20209;-85
2020/12/04 05:55:05;;;;;;;0.20;0.20;;;4.20;99.90;;;;;;5085616;28;20235;-85
2020/12/04 05:57:46;;;;;;;0.30;0.20;;;4.30;99.90;;;;;;5072890;28;20242;-85
2020/12/04 06:00:13;;;;;;;0.93;0.63;;;4.20;99.90;;;;;;5073698;28;20217;-83
2020/12/04 06:02:40;;;;;;;3.53;0.53;;;4.30;99.90;;;;;;5072840;28;20209;-84
2020/12/04 06:05:07;;;;;;;0.30;0.30;;;4.30;99.90;;;;;;5072622;28;20194;-83
2020/12/04 06:07:33;;;;;;;0.40;0.40;;;4.30;99.90;;;;;;5073321;28;20327;-83
2020/12/04 06:09:58;;;;;;;0.10;0.10;;;4.40;99.90;;;;;;5072005;28;20228;-86
2020/12/04 06:12:24;;;;;;;0.20;0.20;;;4.50;99.90;;;;;;5073122;28;20282;-86
2020/12/04 06:14:50;;;;;;;0.20;0.20;;;4.60;99.90;;;;;;5080280;28;20218;-84
2020/12/04 06:17:16;;;;;;;0.40;0.40;;;4.50;99.90;;;;;;5069399;28;20184;-83
2020/12/04 06:19:43;;;;;;;0.20;0.20;;;4.50;99.90;;;;;;5071777;28;20186;-84
2020/12/04 06:22:10;;;;;;;0.10;0.03;;;4.60;99.90;;;;;;5072825;28;20701;-84
2020/12/04 06:24:58;;;;;;;0.10;0.10;;;4.60;99.90;;;;;;5061523;28;20197;-83
2020/12/04 06:27:44;;;;;;;0.10;0.10;;;4.70;99.90;;;;;;5069405;28;20189;-83
2020/12/04 06:30:12;;;;;;;0.30;0.20;;;4.90;99.90;;;;;;5069923;28;20264;-84
2020/12/04 06:32:50;;;;;;;0.20;0.20;;;4.90;99.90;;;;;;5073293;28;20205;-83
2020/12/04 06:35:42;;;;;;;0.20;0.20;;;4.90;99.90;;;;;;5071744;28;20555;-83
2020/12/04 06:38:32;;;;;;;0.33;0.33;;;4.90;99.90;;;;;;5060490;28;20650;-82
2020/12/04 06:41:17;;;;;;;0.73;0.50;;;5.10;99.90;;;;;;5065268;28;20181;-83
2020/12/04 06:43:44;;;;;;;0.53;0.30;;;5.10;99.90;;;;;;5064761;28;20178;-84
2020/12/04 06:46:26;;;;;;;0.17;0.17;;;5.30;99.90;;;;;;5071652;28;20637;-85
2020/12/04 06:49:10;;;;;;;0.40;0.10;;;5.30;99.90;;;;;;5076659;28;20213;-84
2020/12/04 06:51:38;;;;;;;0.53;0.47;;;5.40;99.90;;;;;;5069271;28;20690;-84
2020/12/04 06:54:05;;;;;;;0.13;0.13;;;5.60;99.90;;;;;;5073847;28;20196;-84
2020/12/04 06:56:31;;;;;;;0.20;0.20;;;5.70;99.90;;;;;;5073025;28;20193;-84
2020/12/04 06:58:57;;;;;;;0.10;0.10;;;5.70;99.90;;;;;;5072071;28;20558;-83
2020/12/04 07:01:22;;;;;;;0.10;0.10;;;5.80;99.90;;;;;;5072485;28;20253;-85
2020/12/04 07:03:49;;;;;;;0.13;0.10;;;5.90;99.90;;;;;;5071047;28;20186;-84
2020/12/04 07:06:23;;;;;;;0.77;0.40;;;5.90;99.90;;;;;;5071338;28;20186;-85
2020/12/04 07:09:03;;;;;;;1.03;0.50;;;6.00;99.90;;;;;;5071438;28;20180;-84
2020/12/04 07:11:30;;;;;;;0.40;0.40;;;6.00;99.90;;;;;;5070478;28;20644;-84
2020/12/04 07:13:56;;;;;;;0.50;0.23;;;6.00;99.90;;;;;;5071367;28;20180;-84
2020/12/04 07:16:23;;;;;;;0.10;0.10;;;6.00;99.90;;;;;;5071621;28;20241;-84
2020/12/04 07:18:52;;;;;;;0.20;0.20;;;6.00;99.90;;;;;;5071350;28;20686;-84
2020/12/04 07:21:18;;;;;;;0.20;0.20;;;6.10;99.90;;;;;;5072925;28;20647;-85
2020/12/04 07:23:52;;;;;;;0.20;0.20;;;6.10;99.90;;;;;;5061687;28;20552;-84
2020/12/04 07:26:22;;;;;;;0.10;0.10;;;6.20;99.90;;;;;;5068310;28;20661;-83
2020/12/04 07:28:48;;;;;;;0.20;0.20;;;6.10;99.90;;;;;;5073077;28;20776;-83
2020/12/04 07:31:21;;;;;;;0.10;0.10;;;6.10;99.90;;;;;;5071136;28;20211;-83
2020/12/04 07:33:56;;;;;;;0.50;0.50;;;6.20;99.90;;;;;;5063853;28;20275;-83
2020/12/04 07:36:22;;;;;;;0.53;0.40;;;6.20;99.90;;;;;;5071363;28;20206;-84
2020/12/04 07:38:53;;;;;;;0.40;0.23;;;6.30;99.90;;;;;;5066171;28;20297;-85
2020/12/04 07:41:38;;;;;;;0.10;0.10;;;6.30;99.90;;;;;;5072715;28;20180;-85
2020/12/04 07:44:08;;;;;;;2.77;0.33;;;6.30;99.90;;;;;;5070236;28;20183;-83
2020/12/04 07:46:35;;;;;;;0.40;0.40;;;6.30;99.90;;;;;;5073120;28;20186;-84
2020/12/04 07:49:12;;;;;;;0.10;0.10;;;6.30;99.90;;;;;;5070440;28;20278;-83
2020/12/04 07:51:44;;;;;;;0.40;0.40;;;6.30;99.90;;;;;;5068974;28;20202;-83
2020/12/04 07:54:23;;;;;;;0.10;0.10;;;6.30;99.90;;;;;;5067748;28;20270;-82
2020/12/04 07:56:57;;;;;;;0.10;0.10;;;6.30;99.90;;;;;;5072325;28;20188;-84
2020/12/04 07:59:33;;;;;;;0.93;0.40;;;6.30;99.90;;;;;;5072190;28;20750;-84
2020/12/04 08:02:00;;;;;;;0.60;0.60;;;6.30;99.90;;;;;;5071926;28;20285;-85
2020/12/04 08:04:27;;;;;;;0.37;0.37;;;6.30;99.90;;;;;;5062398;28;20222;-82
2020/12/04 08:07:12;;;;;;;0.10;0.10;;;6.40;99.90;;;;;;5067884;28;20736;-83
2020/12/04 08:09:42;;;;;;;0.20;0.20;;;6.30;99.90;;;;;;5067830;28;20215;-85
2020/12/04 08:12:31;;;;;;;0.10;0.10;;;6.40;99.90;;;;;;5068433;28;20211;-83
2020/12/04 08:14:59;;;;;;;1.40;0.40;;;6.40;99.90;;;;;;5065297;28;20242;-83
2020/12/04 08:17:26;;;;;;;0.10;0.10;;;6.40;99.90;;;;;;5067830;28;20908;-84
2020/12/04 08:19:53;;;;;;;0.10;0.10;;;6.40;99.90;;;;;;5069479;28;20239;-86
2020/12/04 08:22:27;;;;;;;0.53;0.30;;;6.50;99.90;;;;;;5061388;28;20294;-84
2020/12/04 08:25:07;;;;;;;0.40;0.20;;;6.50;99.90;;;;;;5069996;28;20202;-84
2020/12/04 08:27:38;;;;;;;0.73;0.20;;;6.60;99.90;;;;;;5057667;28;20213;-84
2020/12/04 08:30:20;;;;;;;0.13;0.13;;;6.60;99.90;;;;;;5069524;28;20564;-84
2020/12/04 08:33:05;;;;;;;0.10;0.10;;;6.70;99.90;;;;;;5070786;28;20210;-84
2020/12/04 08:35:44;;;;;;;0.23;0.23;;;6.70;99.90;;;;;;5071347;28;20207;-85
2020/12/04 08:38:12;;;;;;;0.10;0.10;;;6.70;99.90;;;;;;5083855;28;20964;-84
2020/12/04 08:40:40;;;;;;;0.30;0.30;;;6.70;99.90;;;;;;5059543;28;20262;-85
2020/12/04 08:43:15;;;;;;;0.17;0.17;;;6.80;99.90;;;;;;5078788;28;20221;-84
2020/12/04 08:45:49;;;;;;;0.60;0.60;;;6.80;99.90;;;;;;5070736;28;20209;-84
2020/12/04 08:48:20;;;;;;;0.50;0.30;;;6.80;99.90;;;;;;5069067;28;20217;-85
2020/12/04 08:50:51;;;;;;;0.73;0.73;;;6.90;99.90;;;;;;5072491;28;20214;-84
2020/12/04 08:53:18;;;;;;;0.50;0.50;;;6.80;99.90;;;;;;5072159;28;20212;-83
2020/12/04 08:55:52;;;;;;;0.30;0.30;;;6.90;99.90;;;;;;5067624;28;20683;-83
2020/12/04 08:58:19;;;;;;;0.97;0.50;;;6.80;99.90;;;;;;5067621;28;20187;-83
2020/12/04 09:00:48;;;;;;;0.20;0.20;;;6.90;99.90;;;;;;5070131;28;20185;-85
2020/12/04 09:03:14;;;;;;;0.10;0.10;;;6.90;99.90;;;;;;5075885;28;20653;-83
2020/12/04 09:05:40;;;;;;;0.40;0.40;;;7.00;99.90;;;;;;5076547;28;20209;-84
2020/12/04 09:08:06;;;;;;;1.27;0.70;;;7.00;99.90;;;;;;5074918;28;20203;-84
2020/12/04 09:10:32;;;;;;;0.20;0.20;;;7.10;99.90;;;;;;5073902;28;20185;-83
2020/12/04 09:12:58;;;;;;;0.70;0.53;;;7.10;99.90;;;;;;5076107;28;20230;-83
2020/12/04 09:15:27;;;;;;;0.50;0.50;;;7.10;99.90;;;;;;5076692;28;20224;-84
2020/12/04 09:17:53;;;;;;;0.63;0.30;;;7.20;99.90;;;;;;5074124;28;20253;-83
2020/12/04 09:20:19;;;;;;;0.60;0.57;;;7.20;99.90;;;;;;5067042;28;20191;-84
2020/12/04 09:22:44;;;;;;;0.80;0.60;;;7.20;99.90;;;;;;5073299;28;20201;-84
2020/12/04 09:25:36;;;;;;;0.67;0.30;;;7.20;99.90;;;;;;5070518;28;20184;-84
2020/12/04 09:28:02;;;;;;;0.33;0.33;;;7.20;99.90;;;;;;5074467;28;20204;-83
2020/12/04 09:30:27;;;;;;;0.40;0.40;;;7.30;99.90;;;;;;5071018;28;20269;-84
2020/12/04 09:32:53;;;;;;;0.20;0.20;;;7.40;99.90;;;;;;5071448;28;20201;-83
2020/12/04 09:35:19;;;;;;;0.40;0.40;;;7.50;99.90;;;;;;5072629;28;20205;-84
2020/12/04 09:37:45;;;;;;;0.10;0.10;;;7.50;99.90;;;;;;5069458;28;20652;-89
2020/12/04 09:40:19;;;;;;;0.10;0.10;;;7.50;99.90;;;;;;5065186;28;20178;-84
2020/12/04 09:42:45;;;;;;;1.07;0.50;;;7.60;99.90;;;;;;5070196;28;20219;-84
2020/12/04 09:45:13;;;;;;;0.30;0.30;;;7.50;99.90;;;;;;5069370;28;20185;-84
2020/12/04 09:47:39;;;;;;;0.10;0.10;;;7.40;99.90;;;;;;5069941;28;20189;-85
2020/12/04 09:50:10;;;;;;;0.20;0.20;;;7.50;99.90;;;;;;5072745;28;20193;-84
2020/12/04 09:52:39;;;;;;;0.70;0.67;;;7.60;99.90;;;;;;5073212;28;20208;-84
2020/12/04 09:55:05;;;;;;;0.37;0.37;;;7.60;99.90;;;;;;5071716;28;20213;-84
2020/12/04 09:57:33;;;;;;;0.40;0.40;;;7.70;99.90;;;;;;5076014;28;20204;-84
2020/12/04 10:00:00;;;;;;;0.83;0.47;;;7.90;99.90;;;;;;5056783;28;20186;-84
2020/12/04 10:02:25;;;;;;;0.57;0.43;;;7.90;99.90;;;;;;5063750;28;20284;-85
2020/12/04 10:04:51;;;;;;;0.10;0.10;;;8.00;99.90;;;;;;5069052;28;20845;-83
2020/12/04 10:07:17;;;;;;;0.10;0.10;;;8.00;99.90;;;;;;5070714;28;20548;-85
2020/12/04 10:09:47;;;;;;;0.40;0.40;;;8.00;99.90;;;;;;5071937;28;20262;-84
2020/12/04 10:12:13;;;;;;;0.53;0.40;;;7.90;99.90;;;;;;5070174;28;20226;-84
2020/12/04 10:14:41;;;;;;;0.20;0.20;;;7.90;99.90;;;;;;5066109;28;20193;-84
2020/12/04 10:17:08;;;;;;;0.63;0.40;;;8.00;99.90;;;;;;5072490;28;20188;-84
2020/12/04 10:19:34;;;;;;;1.80;0.20;;;8.00;99.90;;;;;;5072710;28;20188;-85
2020/12/04 10:21:59;;;;;;;0.17;0.17;;;8.00;99.90;;;;;;5072207;28;20206;-84
2020/12/04 10:24:25;;;;;;;0.37;0.37;;;8.10;99.90;;;;;;5073297;28;20188;-85
2020/12/04 10:26:51;;;;;;;0.67;0.67;;;8.10;99.90;;;;;;5071622;28;20275;-85
2020/12/04 10:29:18;;;;;;;0.30;0.30;;;8.10;99.90;;;;;;5068592;28;20260;-85
2020/12/04 10:31:44;;;;;;;0.20;0.10;;;8.20;99.90;;;;;;5072924;28;20256;-85
2020/12/04 10:34:10;;;;;;;0.90;0.80;;;8.30;99.90;;;;;;5072110;28;20187;-85
2020/12/04 10:36:37;;;;;;;0.47;0.47;;;8.30;99.90;;;;;;5071153;28;20238;-85
2020/12/04 10:39:04;;;;;;;0.93;0.30;;;8.40;99.90;;;;;;5067492;28;20675;-86
2020/12/04 10:41:35;;;;;;;0.20;0.20;;;8.40;99.90;;;;;;5067006;28;20201;-86
2020/12/04 10:44:02;;;;;;;4.13;3.87;;;8.40;99.90;;;;;;5071395;28;20177;-86
2020/12/04 10:46:28;;;;;;;0.20;0.20;;;8.40;99.90;;;;;;5068792;28;20184;-87
2020/12/04 10:48:54;;;;;;;0.63;0.63;;;8.40;99.90;;;;;;5068922;28;20547;-86
2020/12/04 10:51:21;;;;;;;1.67;1.57;;;8.40;99.90;;;;;;5070998;28;20185;-85
2020/12/04 10:53:46;;;;;;;2.20;0.60;;;8.50;99.90;;;;;;5073308;28;20183;-86
2020/12/04 10:56:12;;;;;;;1.50;0.67;;;8.40;99.90;;;;;;5080801;28;20212;-85
2020/12/04 10:58:48;;;;;;;0.53;0.47;;;8.40;99.90;;;;;;5066667;28;20184;-85
2020/12/04 11:01:17;;;;;;;1.03;0.43;;;8.40;99.90;;;;;;5074211;28;20231;-86
2020/12/04 11:06:21;;;;;;;0.67;0.47;;;8.50;99.90;;;;;;5074993;28;20219;-87
2020/12/04 11:08:47;;;;;;;0.10;0.10;;;8.40;99.90;;;;;;5070250;28;20184;-86
2020/12/04 11:11:13;;;;;;;1.20;0.53;;;8.40;99.90;;;;;;5072437;28;20572;-85
2020/12/04 11:13:39;;;;;;;0.10;0.10;;;8.50;99.90;;;;;;5072936;28;20185;-86
2020/12/04 11:16:05;;;;;;;0.10;0.10;;;8.40;99.90;;;;;;5073037;28;20205;-85
2020/12/04 11:18:30;;;;;;;0.10;0.10;;;8.40;99.90;;;;;;5073858;28;20215;-86
2020/12/04 11:20:56;;;;;;;0.20;0.20;;;8.30;99.90;;;;;;5067511;28;20184;-86
2020/12/04 11:23:21;;;;;;;0.40;0.30;;;8.20;99.90;;;;;;5072573;28;20295;-85
2020/12/04 11:25:47;;;;;;;0.90;0.20;;;8.30;99.90;;;;;;5071541;28;20173;-85
2020/12/04 11:28:12;;;;;;;1.17;1.17;;;8.30;99.90;;;;;;5070565;28;20190;-85
2020/12/04 11:30:38;;;;;;;0.50;0.50;;;8.40;99.90;;;;;;5071540;28;20276;-85
2020/12/04 11:33:03;;;;;;;0.53;0.40;;;8.40;99.90;;;;;;5072850;28;20688;-84
2020/12/04 11:35:29;;;;;;;0.60;0.37;;;8.40;99.90;;;;;;5072927;28;20201;-84
2020/12/04 11:37:57;;;;;;;0.30;0.30;;;8.40;99.90;;;;;;5072256;28;20643;-84
2020/12/04 11:40:29;;;;;;;0.30;0.30;;;8.30;99.90;;;;;;5073159;28;20181;-85
2020/12/04 11:42:55;;;;;;;0.43;0.43;;;8.30;99.90;;;;;;5066279;28;20217;-86
2020/12/04 11:45:20;;;;;;;0.33;0.33;;;8.30;99.90;;;;;;5074775;28;20200;-84
2020/12/04 11:47:46;;;;;;;0.40;0.40;;;8.30;99.90;;;;;;5065624;28;20180;-83
2020/12/04 11:50:14;;;;;;;0.30;0.30;;;8.20;99.90;;;;;;5062904;28;20581;-83
2020/12/04 11:52:40;;;;;;;0.30;0.30;;;8.20;99.90;;;;;;5060604;28;20689;-83
2020/12/04 11:55:08;;;;;;;0.00;0.00;;;8.20;99.90;;;;;;5068208;28;20211;-84
2020/12/04 11:57:34;;;;;;;0.30;0.30;;;8.20;99.90;;;;;;5067434;28;20224;-84
2020/12/04 11:59:59;;;;;;;0.10;0.10;;;8.20;99.90;;;;;;5071782;28;20192;-85
2020/12/04 12:02:26;;;;;;;0.13;0.13;;;8.20;99.90;;;;;;5070861;28;20235;-85
2020/12/04 12:04:52;;;;;;;0.60;0.40;;;8.20;99.90;;;;;;5071258;28;20242;-84
2020/12/04 12:07:17;;;;;;;1.90;0.67;;;8.10;99.90;;;;;;5070591;28;20193;-84
2020/12/04 12:09:43;;;;;;;0.13;0.13;;;8.20;99.90;;;;;;5069667;28;20248;-85
2020/12/04 12:12:08;;;;;;;1.03;0.40;;;8.10;99.90;;;;;;5071216;28;20270;-83
2020/12/04 12:14:34;;;;;;;0.10;0.10;;;8.10;99.90;;;;;;5072124;28;20192;-86
2020/12/04 12:17:00;;;;;;;0.03;0.03;;;8.10;99.90;;;;;;5068480;28;20177;-85
2020/12/04 12:19:25;;;;;;;0.30;0.30;;;8.00;99.90;;;;;;5073618;28;20544;-84
2020/12/04 12:21:52;;;;;;;1.40;1.30;;;8.00;99.90;;;;;;5071488;28;20703;-83
2020/12/04 12:24:17;;;;;;;0.00;0.00;;;8.00;99.90;;;;;;5078220;28;20211;-84
2020/12/04 12:26:45;;;;;;;0.10;0.10;;;8.00;99.90;;;;;;5071315;28;20185;-84
2020/12/04 12:29:11;;;;;;;0.10;0.10;;;8.10;99.90;;;;;;5068557;28;20188;-83
2020/12/04 12:31:36;;;;;;;0.10;0.10;;;8.10;99.90;;;;;;5073460;28;20204;-85
2020/12/04 12:34:02;;;;;;;0.10;0.10;;;8.00;99.90;;;;;;5068807;28;20192;-84
2020/12/04 12:36:28;;;;;;;0.23;0.20;;;8.10;99.90;;;;;;5067297;28;20205;-84
2020/12/04 12:38:55;;;;;;;0.30;0.30;;;8.10;99.90;;;;;;5072290;28;20188;-83
2020/12/04 12:41:20;;;;;;;0.10;0.10;;;8.10;99.90;;;;;;5062882;28;20657;-84
2020/12/04 12:43:46;;;;;;;0.20;0.20;;;8.20;99.90;;;;;;5075936;28;20209;-83
2020/12/04 12:46:12;;;;;;;0.00;0.00;;;8.20;99.90;;;;;;5075574;28;20189;-84
2020/12/04 12:48:38;;;;;;;0.10;0.10;;;8.20;99.90;;;;;;5076457;28;20188;-84
2020/12/04 12:51:04;;;;;;;0.10;0.10;;;8.20;99.90;;;;;;5070608;28;20194;-83
2020/12/04 12:53:47;;;;;;;0.00;0.00;;;8.10;99.90;;;;;;5068341;28;20200;-83
2020/12/04 12:56:13;;;;;;;0.10;0.10;;;8.20;99.90;;;;;;5078816;28;20218;-84
2020/12/04 12:58:38;;;;;;;0.10;0.10;;;8.20;99.90;;;;;;5073625;28;20181;-83
2020/12/04 13:01:04;;;;;;;0.00;0.00;;;8.20;99.90;;;;;;5071624;28;20223;-84
2020/12/04 13:03:30;;;;;;;0.07;0.07;;;8.20;99.90;;;;;;5074389;28;20308;-84
2020/12/04 13:05:55;;;;;;;0.10;0.10;;;8.20;99.90;;;;;;5073659;28;20192;-84